Time;durP1;ratioP1;P1;durP2;ratioP2;P2;SDS_P1;SDS_P2;PMS_P1;PMS_P2;Temp;Humidity;BMP_temperature;BMP_pressure;BME280_temperature;BME280_humidity;BME280_pressure;Samples;Min_cycle;Max_cycle;Signal;HPM_P1;HPM_P2
2023/09/04 00:00:53;;;;;;;0.50;0.40;;;;;;;22.42;63.74;95204.81;5072286;28;20537;-59
2023/09/04 00:03:21;;;;;;;0.70;0.43;;;;;;;22.44;63.99;95199.84;5071885;28;20528;-58
2023/09/04 00:05:51;;;;;;;0.50;0.30;;;;;;;22.68;63.66;95213.22;5072434;28;20568;-59
2023/09/04 00:08:20;;;;;;;0.70;0.47;;;;;;;22.41;63.85;95208.66;5071395;28;21018;-59
2023/09/04 00:10:49;;;;;;;0.60;0.50;;;;;;;22.68;62.50;95197.03;5072116;28;20476;-59
2023/09/04 00:13:17;;;;;;;0.67;0.60;;;;;;;22.95;61.32;95183.75;5071459;28;20968;-59
2023/09/04 00:15:46;;;;;;;0.57;0.40;;;;;;;23.04;61.07;95190.56;5072339;28;20871;-59
2023/09/04 00:18:14;;;;;;;0.50;0.40;;;;;;;23.07;60.83;95180.97;5071561;28;20441;-59
2023/09/04 00:20:42;;;;;;;0.90;0.60;;;;;;;22.95;61.54;95189.16;5071882;28;20797;-59
2023/09/04 00:23:12;;;;;;;0.40;0.27;;;;;;;23.16;60.63;95189.66;5071520;28;20437;-59
2023/09/04 00:25:40;;;;;;;0.90;0.40;;;;;;;22.79;61.58;95143.25;5071597;28;20496;-58
2023/09/04 00:28:09;;;;;;;0.50;0.40;;;;;;;23.16;62.24;95197.75;5045454;28;20981;-58
2023/09/04 00:30:37;;;;;;;0.50;0.30;;;;;;;23.35;62.21;95197.84;5071502;28;20442;-59
2023/09/04 00:33:06;;;;;;;0.50;0.33;;;;;;;23.51;61.57;95195.09;5071863;28;20814;-59
2023/09/04 00:35:34;;;;;;;0.40;0.30;;;;;;;23.46;61.90;95193.44;5071620;28;20539;-58
2023/09/04 00:38:02;;;;;;;0.50;0.40;;;;;;;23.17;61.29;95199.34;5071596;28;20528;-59
2023/09/04 00:40:32;;;;;;;0.57;0.40;;;;;;;23.47;59.82;95205.84;5071406;28;20449;-58
2023/09/04 00:43:01;;;;;;;0.60;0.30;;;;;;;23.31;59.05;95153.69;5071551;28;20445;-59
2023/09/04 00:45:30;;;;;;;0.47;0.33;;;;;;;23.81;58.60;95206.94;5070579;28;20473;-59
2023/09/04 00:47:59;;;;;;;0.50;0.30;;;;;;;23.77;58.46;95223.13;5071096;28;20447;-59
2023/09/04 00:50:28;;;;;;;0.90;0.40;;;;;;;23.41;59.90;95231.59;5069800;28;20469;-58
2023/09/04 00:52:59;;;;;;;0.70;0.70;;;;;;;22.80;62.72;95235.88;5071293;28;20453;-59
2023/09/04 00:55:27;;;;;;;1.03;0.30;;;;;;;22.66;65.38;95258.72;5070994;28;20430;-59
2023/09/04 00:57:58;;;;;;;0.63;0.63;;;;;;;22.32;65.86;95267.41;5070764;28;20840;-59
2023/09/04 01:00:27;;;;;;;1.03;0.93;;;;;;;21.93;70.44;95279.84;5069792;28;20520;-59
2023/09/04 01:03:02;;;;;;;0.67;0.53;;;;;;;21.46;73.55;95273.34;5070719;28;20444;-60
2023/09/04 01:05:32;;;;;;;1.13;0.57;;;;;;;20.39;88.66;95273.63;5071241;28;20828;-59
2023/09/04 01:08:01;;;;;;;0.63;0.40;;;;;;;19.32;100.00;95205.50;5070861;28;20922;-59
2023/09/04 01:10:35;;;;;;;1.90;0.60;;;;;;;19.30;100.00;95281.06;5071081;28;20441;-58
2023/09/04 01:13:13;;;;;;;6.53;1.17;;;;;;;19.20;100.00;95288.72;5070759;28;20518;-60
2023/09/04 01:15:41;;;;;;;0.50;0.40;;;;;;;19.21;100.00;95291.06;5070942;28;20437;-61
2023/09/04 01:18:11;;;;;;;5.43;0.47;;;;;;;19.10;100.00;95297.16;5070724;28;20433;-60
2023/09/04 01:20:42;;;;;;;8.40;0.80;;;;;;;18.90;100.00;95296.75;5070076;28;20445;-61
2023/09/04 01:23:10;;;;;;;0.40;0.20;;;;;;;19.08;100.00;95299.34;5070592;28;20499;-61
2023/09/04 01:25:45;;;;;;;0.50;0.50;;;;;;;19.51;100.00;95310.69;5070909;28;20469;-60
2023/09/04 01:28:22;;;;;;;0.60;0.60;;;;;;;19.87;100.00;95316.34;5039010;28;20434;-59
2023/09/04 01:30:58;;;;;;;0.40;0.20;;;;;;;20.25;100.00;95322.41;5053647;28;20581;-59
2023/09/04 01:33:32;;;;;;;0.40;0.20;;;;;;;20.41;100.00;95311.03;5070681;28;20447;-58
2023/09/04 01:36:05;;;;;;;0.60;0.30;;;;;;;20.16;100.00;95250.91;5071198;28;20444;-58
2023/09/04 01:38:35;;;;;;;0.50;0.30;;;;;;;20.27;100.00;95320.16;5071115;28;20580;-59
2023/09/04 01:41:05;;;;;;;0.40;0.20;;;;;;;20.48;100.00;95322.81;5045134;28;20441;-59
2023/09/04 01:43:34;;;;;;;0.50;0.40;;;;;;;20.07;100.00;95334.38;5057537;28;20438;-59
2023/09/04 01:46:02;;;;;;;0.60;0.40;;;;;;;19.70;100.00;95332.59;5071021;28;20473;-59
2023/09/04 01:48:31;;;;;;;0.40;0.30;;;;;;;19.76;100.00;95338.56;5070806;28;20448;-59
2023/09/04 01:50:59;;;;;;;2.37;0.40;;;;;;;19.69;100.00;95339.06;5069172;28;20820;-60
2023/09/04 01:53:29;;;;;;;0.50;0.40;;;;;;;19.47;100.00;95328.59;5069544;28;22764;-59
2023/09/04 01:55:58;;;;;;;0.57;0.40;;;;;;;19.45;100.00;95341.59;5070125;28;20444;-60
2023/09/04 01:58:28;;;;;;;0.60;0.60;;;;;;;19.56;100.00;95338.19;5073379;28;20441;-59
2023/09/04 02:00:56;;;;;;;0.50;0.30;;;;;;;19.70;100.00;95334.50;5073721;28;20437;-59
2023/09/04 02:03:24;;;;;;;0.40;0.30;;;;;;;19.65;100.00;95338.16;5073358;28;20899;-59
2023/09/04 02:05:53;;;;;;;0.93;0.40;;;;;;;19.85;100.00;95334.69;5073281;28;20468;-60
2023/09/04 02:08:21;;;;;;;0.67;0.30;;;;;;;19.47;100.00;95293.66;5073175;28;20480;-59
2023/09/04 02:10:51;;;;;;;0.50;0.30;;;;;;;20.01;100.00;95334.91;5072695;28;20441;-59
2023/09/04 02:13:19;;;;;;;0.50;0.33;;;;;;;19.54;100.00;95332.38;5072909;28;20436;-60
2023/09/04 02:15:47;;;;;;;0.50;0.40;;;;;;;19.56;100.00;95332.81;5073306;28;20914;-60
2023/09/04 02:18:16;;;;;;;0.40;0.20;;;;;;;19.76;100.00;95331.25;5072804;28;20480;-59
2023/09/04 02:20:46;;;;;;;1.33;0.70;;;;;;;20.08;100.00;95327.09;5073324;28;20518;-60
2023/09/04 02:23:14;;;;;;;4.13;0.60;;;;;;;19.71;100.00;95320.69;5047072;28;20991;-61
2023/09/04 02:25:43;;;;;;;0.40;0.30;;;;;;;19.32;100.00;95327.25;5073005;28;20437;-60
2023/09/04 02:28:13;;;;;;;2.93;1.23;;;;;;;19.35;100.00;95329.28;5073309;28;20433;-61
2023/09/04 02:30:41;;;;;;;0.40;0.30;;;;;;;19.42;100.00;95337.66;5072825;28;20488;-60
2023/09/04 02:33:09;;;;;;;0.40;0.30;;;;;;;19.43;100.00;95333.06;5072912;28;20516;-60
2023/09/04 02:35:38;;;;;;;0.60;0.60;;;;;;;19.37;100.00;95331.66;5072398;28;20583;-59
2023/09/04 02:38:06;;;;;;;0.60;0.50;;;;;;;18.91;100.00;95341.31;5072226;28;20453;-59
2023/09/04 02:40:34;;;;;;;0.47;0.40;;;;;;;18.66;100.00;95328.72;5072540;28;20949;-58
2023/09/04 02:43:03;;;;;;;0.60;0.40;;;;;;;18.72;100.00;95330.13;5072393;28;20865;-59
2023/09/04 02:45:33;;;;;;;0.57;0.47;;;;;;;19.07;100.00;95328.13;5072282;28;20474;-58
2023/09/04 02:48:01;;;;;;;0.50;0.30;;;;;;;19.11;100.00;95334.44;5072178;28;20555;-58
2023/09/04 02:50:30;;;;;;;0.60;0.40;;;;;;;19.10;100.00;95337.44;5026017;28;1341425;-58
2023/09/04 02:52:58;;;;;;;1.90;0.67;;;;;;;19.04;100.00;95339.53;5073800;28;20502;-59
2023/09/04 02:55:27;;;;;;;1.70;1.70;;;;;;;19.14;100.00;95314.19;5073753;28;20530;-60
2023/09/04 02:57:55;;;;;;;0.70;0.30;;;;;;;19.67;100.00;95346.69;5073636;28;20502;-55
2023/09/04 03:00:26;;;;;;;0.93;0.47;;;;;;;19.99;100.00;95347.88;5060657;28;20572;-56
2023/09/04 03:02:56;;;;;;;0.50;0.40;;;;;;;19.95;100.00;95347.78;5073291;28;20524;-55
2023/09/04 03:05:26;;;;;;;0.50;0.40;;;;;;;20.56;100.00;95342.72;5073484;28;20816;-55
2023/09/04 03:07:55;;;;;;;0.40;0.30;;;;;;;20.67;100.00;95341.19;5072610;28;20538;-55
2023/09/04 03:10:23;;;;;;;1.03;0.50;;;;;;;20.63;100.00;95340.25;5073681;28;20437;-55
2023/09/04 03:12:51;;;;;;;0.60;0.30;;;;;;;20.09;100.00;95342.91;5073179;28;20469;-61
2023/09/04 03:15:20;;;;;;;0.50;0.50;;;;;;;19.56;100.00;95343.56;5073168;28;20448;-59
2023/09/04 03:17:48;;;;;;;0.50;0.40;;;;;;;19.51;100.00;95353.72;5072831;28;20437;-59
2023/09/04 03:20:19;;;;;;;1.33;0.43;;;;;;;19.59;100.00;95337.56;5072979;28;20535;-60
2023/09/04 03:22:48;;;;;;;0.50;0.40;;;;;;;19.92;100.00;95344.94;5073116;28;20438;-59
2023/09/04 03:25:16;;;;;;;0.50;0.30;;;;;;;20.04;100.00;95348.47;5073203;28;20438;-59
2023/09/04 03:27:45;;;;;;;2.90;0.53;;;;;;;20.17;100.00;95339.38;5072268;28;20480;-59
2023/09/04 03:30:14;;;;;;;0.50;0.30;;;;;;;20.23;100.00;95340.00;5072759;28;20449;-58
2023/09/04 03:32:42;;;;;;;0.90;0.40;;;;;;;20.26;100.00;95342.78;5072595;28;20443;-58
2023/09/04 03:35:13;;;;;;;0.50;0.30;;;;;;;20.08;100.00;95344.03;5073059;28;20433;-58
2023/09/04 03:37:42;;;;;;;0.40;0.30;;;;;;;20.06;100.00;95338.19;5072368;28;20513;-58
2023/09/04 03:40:22;;;;;;;0.40;0.30;;;;;;;20.37;100.00;95329.72;5072400;28;20437;-58
2023/09/04 03:42:52;;;;;;;0.50;0.30;;;;;;;20.32;100.00;95339.91;5047123;28;20448;-58
2023/09/04 03:45:21;;;;;;;0.40;0.30;;;;;;;20.16;100.00;95286.66;5072577;28;20507;-58
2023/09/04 03:47:50;;;;;;;0.50;0.30;;;;;;;20.64;100.00;95342.63;5072222;28;20855;-58
2023/09/04 03:50:18;;;;;;;0.40;0.30;;;;;;;20.46;100.00;95306.22;5072156;28;20954;-58
2023/09/04 03:52:48;;;;;;;0.50;0.30;;;;;;;20.61;100.00;95331.72;5072475;28;20441;-58
2023/09/04 03:55:16;;;;;;;0.50;0.30;;;;;;;20.55;100.00;95341.91;5072393;28;20510;-58
2023/09/04 03:57:47;;;;;;;0.50;0.30;;;;;;;20.49;100.00;95329.00;5071981;28;20438;-58
2023/09/04 04:00:16;;;;;;;0.50;0.30;;;;;;;20.84;100.00;95335.63;5072103;28;20430;-59
2023/09/04 04:02:46;;;;;;;0.40;0.30;;;;;;;20.58;100.00;95327.00;5072196;28;20449;-59
2023/09/04 04:05:16;;;;;;;1.77;0.57;;;;;;;20.26;100.00;95336.66;5071913;28;20441;-59
2023/09/04 04:07:45;;;;;;;0.60;0.33;;;;;;;20.05;100.00;95342.00;5071778;28;20470;-59
2023/09/04 04:10:14;;;;;;;0.70;0.53;;;;;;;19.50;100.00;95336.03;5071905;28;20440;-58
2023/09/04 04:12:43;;;;;;;0.80;0.80;;;;;;;19.44;100.00;95331.94;5071894;28;20552;-58
2023/09/04 04:15:11;;;;;;;0.50;0.40;;;;;;;19.54;100.00;95316.22;5071366;28;20976;-58
2023/09/04 04:17:40;;;;;;;0.40;0.27;;;;;;;19.60;100.00;95328.38;5070593;28;20445;-62
2023/09/04 04:20:11;;;;;;;0.47;0.30;;;;;;;19.10;100.00;95264.91;5070775;28;20445;-59
2023/09/04 04:22:41;;;;;;;5.30;0.60;;;;;;;19.62;100.00;95328.03;5070957;28;20937;-59
2023/09/04 04:25:10;;;;;;;1.87;0.30;;;;;;;19.51;100.00;95294.56;5071919;28;20437;-58
2023/09/04 04:27:41;;;;;;;0.50;0.40;;;;;;;20.11;100.00;95313.00;5071204;28;20500;-59
2023/09/04 04:30:10;;;;;;;1.13;0.40;;;;;;;20.05;100.00;95319.69;5071892;28;20491;-62
2023/09/04 04:32:39;;;;;;;0.47;0.30;;;;;;;20.29;100.00;95319.06;5071294;28;20441;-60
2023/09/04 04:35:08;;;;;;;0.47;0.30;;;;;;;20.64;100.00;95312.22;5071783;28;20464;-60
2023/09/04 04:37:36;;;;;;;0.50;0.30;;;;;;;20.75;100.00;95310.66;5071313;28;20914;-60
2023/09/04 04:40:06;;;;;;;6.03;0.30;;;;;;;20.67;100.00;95314.25;5071628;28;20548;-60
2023/09/04 04:42:34;;;;;;;0.50;0.40;;;;;;;20.39;100.00;95305.19;5071155;28;20438;-59
2023/09/04 04:45:05;;;;;;;0.50;0.50;;;;;;;20.69;100.00;95309.31;5071567;28;20463;-59
2023/09/04 04:47:33;;;;;;;0.40;0.30;;;;;;;20.76;100.00;95313.03;5045307;28;21004;-60
2023/09/04 04:50:01;;;;;;;0.50;0.50;;;;;;;20.80;100.00;95281.59;5070850;28;20571;-59
2023/09/04 04:52:30;;;;;;;1.57;1.13;;;;;;;20.54;100.00;95246.09;5070141;28;20456;-60
2023/09/04 04:54:58;;;;;;;0.93;0.30;;;;;;;20.96;100.00;95307.91;5071359;28;20870;-60
2023/09/04 04:57:26;;;;;;;0.60;0.37;;;;;;;20.83;100.00;95302.50;5071153;28;20441;-60
2023/09/04 04:59:55;;;;;;;3.70;0.67;;;;;;;20.54;100.00;95318.03;5071152;28;20518;-61
2023/09/04 05:02:24;;;;;;;0.67;0.40;;;;;;;20.07;100.00;95302.09;5071176;28;20949;-61
2023/09/04 05:04:53;;;;;;;0.87;0.87;;;;;;;20.12;100.00;95303.78;5070756;28;20499;-59
2023/09/04 05:07:21;;;;;;;0.50;0.30;;;;;;;20.42;100.00;95301.81;5070745;28;20499;-61
2023/09/04 05:09:53;;;;;;;1.53;0.50;;;;;;;20.39;100.00;95302.50;5071677;28;20445;-60
2023/09/04 05:12:21;;;;;;;0.90;0.30;;;;;;;20.53;100.00;95298.38;5070964;28;20442;-61
2023/09/04 05:14:50;;;;;;;0.60;0.43;;;;;;;20.16;100.00;95294.72;5070838;28;20449;-61
2023/09/04 05:17:18;;;;;;;1.00;0.50;;;;;;;20.07;100.00;95290.53;5071401;28;20904;-61
2023/09/04 05:19:49;;;;;;;0.53;0.50;;;;;;;19.78;100.00;95296.78;5070236;28;20437;-60
2023/09/04 05:22:18;;;;;;;0.50;0.30;;;;;;;20.08;100.00;95286.75;5071012;28;20486;-61
2023/09/04 05:24:46;;;;;;;0.47;0.30;;;;;;;20.24;100.00;95291.19;5071358;28;20843;-61
2023/09/04 05:27:15;;;;;;;0.50;0.30;;;;;;;20.21;100.00;95278.38;5070657;28;20441;-61
2023/09/04 05:29:43;;;;;;;0.53;0.37;;;;;;;19.99;100.00;95281.41;5071251;28;20863;-61
2023/09/04 05:32:12;;;;;;;0.50;0.30;;;;;;;20.19;100.00;95279.81;5070597;28;20437;-61
2023/09/04 05:34:41;;;;;;;0.50;0.50;;;;;;;20.26;100.00;95267.44;5071173;28;20498;-56
2023/09/04 05:37:11;;;;;;;0.70;0.50;;;;;;;20.03;100.00;95270.81;5070275;28;20445;-56
2023/09/04 05:39:39;;;;;;;0.50;0.40;;;;;;;20.07;100.00;95264.41;5070712;28;20458;-56
2023/09/04 05:42:07;;;;;;;0.40;0.30;;;;;;;20.05;100.00;95194.00;5070812;28;20453;-56
2023/09/04 05:44:35;;;;;;;0.50;0.30;;;;;;;19.54;100.00;95195.25;5070669;28;20437;-56
2023/09/04 05:47:04;;;;;;;0.73;0.40;;;;;;;19.89;100.00;95254.13;5070739;28;20491;-56
2023/09/04 05:49:32;;;;;;;0.57;0.40;;;;;;;20.02;100.00;95250.38;5060040;28;20597;-56
2023/09/04 05:52:01;;;;;;;0.43;0.27;;;;;;;20.18;100.00;95243.28;5068388;28;20858;-56
2023/09/04 05:54:31;;;;;;;0.40;0.30;;;;;;;20.03;100.00;95241.19;5070568;28;20437;-56
2023/09/04 05:56:59;;;;;;;0.50;0.30;;;;;;;19.90;100.00;95240.38;5070410;28;20972;-56
2023/09/04 05:59:27;;;;;;;0.40;0.30;;;;;;;19.76;100.00;95244.44;5071196;28;20441;-56
2023/09/04 06:01:56;;;;;;;1.37;0.30;;;;;;;20.15;100.00;95243.94;5070579;28;20441;-56
2023/09/04 06:04:24;;;;;;;0.40;0.30;;;;;;;20.24;100.00;95199.69;5070694;28;20445;-56
2023/09/04 06:06:52;;;;;;;0.60;0.37;;;;;;;20.60;100.00;95241.28;5070474;28;20437;-56
2023/09/04 06:09:21;;;;;;;0.40;0.20;;;;;;;20.44;100.00;95237.66;5069697;28;20476;-56
2023/09/04 06:11:53;;;;;;;0.40;0.30;;;;;;;20.12;100.00;95242.69;5070287;28;20449;-57
2023/09/04 06:14:21;;;;;;;0.50;0.30;;;;;;;20.30;100.00;95245.25;5069663;28;20445;-56
2023/09/04 06:16:49;;;;;;;0.40;0.20;;;;;;;20.36;100.00;95219.69;5070385;28;20449;-56
2023/09/04 06:19:18;;;;;;;0.60;0.57;;;;;;;20.72;100.00;95230.53;5070371;28;20554;-56
2023/09/04 06:21:46;;;;;;;0.40;0.30;;;;;;;20.64;100.00;95251.06;5070680;28;20433;-56
2023/09/04 06:24:14;;;;;;;0.70;0.47;;;;;;;20.95;100.00;95236.28;5070401;28;20822;-55
2023/09/04 06:26:43;;;;;;;0.40;0.30;;;;;;;20.94;100.00;95237.41;5070172;28;20437;-55
2023/09/04 06:29:13;;;;;;;0.50;0.30;;;;;;;20.87;100.00;95186.78;5069460;28;20898;-56
2023/09/04 06:31:41;;;;;;;0.50;0.30;;;;;;;21.36;100.00;95236.84;5069361;28;20949;-55
2023/09/04 06:34:10;;;;;;;1.57;0.50;;;;;;;21.14;100.00;95206.88;5057184;28;20460;-56
2023/09/04 06:36:38;;;;;;;0.40;0.30;;;;;;;21.43;100.00;95225.47;5070331;28;20524;-56
2023/09/04 06:39:07;;;;;;;0.57;0.57;;;;;;;21.31;100.00;95160.81;5069862;28;20442;-56
2023/09/04 06:41:35;;;;;;;0.57;0.30;;;;;;;21.63;100.00;95221.09;5070805;28;20510;-56
2023/09/04 06:44:04;;;;;;;0.40;0.23;;;;;;;21.42;100.00;95210.44;5074024;28;20828;-56
2023/09/04 06:46:34;;;;;;;0.67;0.40;;;;;;;20.88;100.00;95224.16;5073843;28;20469;-56
2023/09/04 06:49:02;;;;;;;0.50;0.50;;;;;;;19.81;100.00;95031.78;5072694;28;20476;-56
2023/09/04 06:51:31;;;;;;;0.50;0.40;;;;;;;21.27;100.00;95213.84;5073320;28;20441;-56
2023/09/04 06:54:00;;;;;;;0.50;0.30;;;;;;;20.81;100.00;95210.47;5060333;28;20445;-56
2023/09/04 06:56:28;;;;;;;0.50;0.50;;;;;;;21.19;100.00;95225.53;5073084;28;20945;-56
2023/09/04 06:58:57;;;;;;;0.73;0.70;;;;;;;20.88;100.00;95223.34;5074034;28;20444;-56
2023/09/04 07:01:25;;;;;;;0.50;0.40;;;;;;;20.72;100.00;95217.84;5073138;28;20437;-56
2023/09/04 07:03:55;;;;;;;0.47;0.37;;;;;;;20.76;100.00;95215.28;5073907;28;20460;-56
2023/09/04 07:06:23;;;;;;;0.70;0.30;;;;;;;21.01;100.00;95216.84;5073207;28;20440;-55
2023/09/04 07:08:53;;;;;;;0.50;0.40;;;;;;;20.26;100.00;95079.03;5073490;28;20477;-55
2023/09/04 07:11:22;;;;;;;1.00;0.63;;;;;;;21.18;100.00;95219.34;5070765;28;20448;-56
2023/09/04 07:13:50;;;;;;;0.40;0.30;;;;;;;21.29;100.00;95223.16;5047000;28;20489;-56
2023/09/04 07:16:18;;;;;;;0.40;0.30;;;;;;;21.47;100.00;95227.19;5049915;28;20481;-56
2023/09/04 07:19:05;;;;;;;0.50;0.40;;;;;;;21.52;100.00;95231.56;5073868;28;20518;-55
2023/09/04 07:21:37;;;;;;;0.70;0.30;;;;;;;21.32;100.00;95229.78;5073293;28;21004;-55
2023/09/04 07:24:06;;;;;;;0.70;0.40;;;;;;;21.44;100.00;95241.34;5073009;28;20918;-56
2023/09/04 07:26:34;;;;;;;0.50;0.50;;;;;;;21.61;100.00;95229.50;5072895;28;20885;-56
2023/09/04 07:29:03;;;;;;;0.73;0.73;;;;;;;21.77;100.00;95237.66;5072554;28;20473;-56
2023/09/04 07:31:31;;;;;;;0.60;0.40;;;;;;;21.63;100.00;95234.56;5072786;28;20437;-56
2023/09/04 07:34:00;;;;;;;0.50;0.37;;;;;;;21.82;100.00;95242.81;5072718;28;20464;-55
2023/09/04 07:36:29;;;;;;;0.60;0.37;;;;;;;21.89;100.00;95233.06;5072924;28;20823;-55
2023/09/04 07:41:43;;;;;;;0.50;0.30;;;;;;;22.07;100.00;95231.66;5052097;28;20442;-55
2023/09/04 07:44:12;;;;;;;0.40;0.20;;;;;;;22.10;100.00;95235.56;5072114;28;20515;-55
2023/09/04 07:46:41;;;;;;;0.40;0.30;;;;;;;21.97;100.00;95234.81;5072357;28;20452;-55
2023/09/04 07:49:09;;;;;;;0.40;0.30;;;;;;;21.33;100.00;95172.03;5072316;28;20481;-55
2023/09/04 07:51:40;;;;;;;0.57;0.33;;;;;;;21.61;97.43;95189.03;5072158;28;21002;-55
2023/09/04 07:54:08;;;;;;;0.50;0.40;;;;;;;21.43;100.00;95241.66;5071793;28;20471;-53
2023/09/04 07:56:36;;;;;;;0.60;0.30;;;;;;;21.90;100.00;95231.94;5072330;28;20438;-53
2023/09/04 07:59:08;;;;;;;0.40;0.30;;;;;;;21.91;100.00;95176.03;5072790;28;20476;-53
2023/09/04 08:01:36;;;;;;;0.40;0.30;;;;;;;22.51;91.32;95237.06;5061912;28;20956;-53
2023/09/04 08:04:04;;;;;;;0.40;0.20;;;;;;;22.47;97.79;95201.84;5072427;28;20530;-55
2023/09/04 08:06:33;;;;;;;0.40;0.30;;;;;;;22.93;94.96;95235.47;5047038;28;20433;-55
2023/09/04 08:09:03;;;;;;;0.40;0.30;;;;;;;22.86;89.61;95239.91;5071943;28;20480;-56
2023/09/04 08:11:31;;;;;;;0.40;0.30;;;;;;;22.81;91.83;95234.75;5071801;28;20465;-57
2023/09/04 08:14:00;;;;;;;0.40;0.30;;;;;;;22.99;90.84;95228.66;5072307;28;20452;-57
2023/09/04 08:16:28;;;;;;;0.40;0.30;;;;;;;23.12;88.64;95238.22;5072281;28;20437;-56
2023/09/04 08:18:57;;;;;;;0.50;0.30;;;;;;;23.26;85.33;95237.78;5072197;28;20492;-56
2023/09/04 08:21:26;;;;;;;0.50;0.30;;;;;;;23.22;83.24;95242.34;5071956;28;20484;-57
2023/09/04 08:23:54;;;;;;;0.50;0.40;;;;;;;23.40;83.02;95246.28;5071811;28;20870;-56
2023/09/04 08:26:24;;;;;;;0.60;0.60;;;;;;;23.30;88.09;95239.44;5072353;28;20442;-56
2023/09/04 08:28:53;;;;;;;0.50;0.30;;;;;;;23.12;83.06;95240.16;5071564;28;20953;-56
2023/09/04 08:31:21;;;;;;;1.60;0.40;;;;;;;23.17;84.81;95239.91;5072043;28;20441;-57
2023/09/04 08:33:50;;;;;;;0.43;0.30;;;;;;;23.30;84.74;95228.63;5071659;28;20453;-57
2023/09/04 08:36:18;;;;;;;0.50;0.40;;;;;;;23.51;85.02;95244.56;5072130;28;20445;-57
2023/09/04 08:38:46;;;;;;;0.70;0.30;;;;;;;23.27;83.14;95240.16;5071794;28;20437;-55
2023/09/04 08:41:20;;;;;;;0.60;0.43;;;;;;;23.43;82.03;95253.66;5071693;28;20441;-55
2023/09/04 08:43:50;;;;;;;0.40;0.30;;;;;;;23.28;80.94;95246.34;5071094;28;20471;-55
2023/09/04 08:46:20;;;;;;;0.50;0.50;;;;;;;23.45;77.49;95248.72;5071255;28;20433;-56
2023/09/04 08:48:51;;;;;;;0.50;0.30;;;;;;;22.56;85.13;95255.72;5070996;28;20469;-56
2023/09/04 08:51:21;;;;;;;0.40;0.30;;;;;;;23.04;86.64;95244.63;5071492;28;20468;-56
2023/09/04 08:53:50;;;;;;;0.80;0.40;;;;;;;22.48;90.65;95243.94;5071705;28;20442;-56
2023/09/04 08:56:19;;;;;;;0.60;0.60;;;;;;;22.17;93.87;95246.56;5071047;28;20437;-55
2023/09/04 08:58:47;;;;;;;0.50;0.40;;;;;;;21.82;93.99;95248.22;5070911;28;20445;-55
2023/09/04 09:01:19;;;;;;;0.50;0.40;;;;;;;22.21;94.95;95247.47;5071746;28;20852;-55
2023/09/04 09:03:47;;;;;;;0.40;0.30;;;;;;;22.75;91.89;95255.84;5071307;28;20831;-55
2023/09/04 09:06:16;;;;;;;0.50;0.30;;;;;;;22.24;97.95;95251.38;5071222;28;20532;-55
2023/09/04 09:08:46;;;;;;;0.50;0.30;;;;;;;21.78;100.00;95250.03;5071340;28;20466;-55
2023/09/04 09:11:15;;;;;;;0.53;0.30;;;;;;;21.98;100.00;95257.22;5070981;28;20508;-55
2023/09/04 09:13:44;;;;;;;0.60;0.43;;;;;;;22.21;100.00;95249.38;5071201;28;20507;-55
2023/09/04 09:16:20;;;;;;;0.50;0.33;;;;;;;22.11;100.00;95253.34;5070474;28;20433;-56
2023/09/04 09:18:49;;;;;;;0.40;0.30;;;;;;;21.88;100.00;95247.66;5069755;28;20879;-55
2023/09/04 09:21:25;;;;;;;0.63;0.50;;;;;;;21.51;100.00;95249.63;5070885;28;20473;-57
2023/09/04 09:24:16;;;;;;;0.60;0.43;;;;;;;21.69;100.00;95219.69;5070803;28;20437;-57
2023/09/04 09:26:49;;;;;;;0.50;0.30;;;;;;;22.14;98.17;95247.25;5070631;28;20437;-57
2023/09/04 09:29:19;;;;;;;0.40;0.30;;;;;;;22.18;95.33;95248.13;5070493;28;20437;-57
2023/09/04 09:31:49;;;;;;;0.57;0.30;;;;;;;22.04;93.32;95242.31;5071261;28;20445;-57
2023/09/04 09:34:19;;;;;;;0.40;0.30;;;;;;;21.91;91.01;95246.97;5044506;28;20890;-57
2023/09/04 09:36:47;;;;;;;0.40;0.30;;;;;;;22.15;88.31;95227.22;5071185;28;20441;-58
2023/09/04 09:39:16;;;;;;;0.40;0.20;;;;;;;22.49;88.81;95237.38;5070687;28;20967;-60
2023/09/04 09:41:47;;;;;;;0.57;0.30;;;;;;;22.63;90.40;95232.41;5070081;28;20440;-58
2023/09/04 09:44:15;;;;;;;0.50;0.40;;;;;;;22.22;88.87;95235.50;5070063;28;20437;-58
2023/09/04 09:46:43;;;;;;;0.43;0.30;;;;;;;22.47;86.00;95239.66;5070611;28;20846;-58
2023/09/04 09:49:13;;;;;;;0.40;0.30;;;;;;;22.59;84.19;95241.53;5070547;28;20945;-58
2023/09/04 09:51:42;;;;;;;0.60;0.40;;;;;;;22.27;86.99;95239.88;5071222;28;21136;-58
2023/09/04 09:54:12;;;;;;;0.50;0.30;;;;;;;22.13;78.17;95241.06;5070997;28;20528;-58
2023/09/04 09:56:42;;;;;;;0.40;0.30;;;;;;;21.83;80.99;95177.72;5070335;28;20497;-58
2023/09/04 09:59:13;;;;;;;0.40;0.30;;;;;;;22.52;80.66;95236.69;5070406;28;20433;-59
2023/09/04 10:01:42;;;;;;;0.40;0.30;;;;;;;22.05;73.32;95184.53;5071061;28;20923;-59
2023/09/04 10:04:11;;;;;;;0.50;0.50;;;;;;;22.46;79.05;95226.50;5071112;28;20552;-59
2023/09/04 10:06:42;;;;;;;0.47;0.30;;;;;;;22.02;79.45;95187.91;5045009;28;21031;-59
2023/09/04 10:09:12;;;;;;;0.40;0.30;;;;;;;22.25;76.22;95231.34;5070800;28;20512;-59
2023/09/04 10:11:42;;;;;;;1.03;0.50;;;;;;;21.70;80.54;95232.06;5069874;28;20508;-59
2023/09/04 10:14:15;;;;;;;0.57;0.40;;;;;;;21.67;82.28;95224.66;5070004;28;20998;-60
2023/09/04 10:16:47;;;;;;;0.50;0.50;;;;;;;21.69;81.75;95212.41;5065814;28;20513;-59
2023/09/04 10:19:19;;;;;;;0.60;0.30;;;;;;;22.12;79.98;95227.91;5074330;28;20526;-59
2023/09/04 10:21:55;;;;;;;0.87;0.50;;;;;;;22.01;78.73;95229.53;5074355;28;20452;-59
2023/09/04 10:24:36;;;;;;;1.90;0.73;;;;;;;21.83;78.71;95231.69;5074410;28;20436;-59
2023/09/04 10:27:09;;;;;;;0.50;0.30;;;;;;;21.96;76.77;95238.66;5074663;28;20441;-58
2023/09/04 10:29:47;;;;;;;0.40;0.30;;;;;;;21.87;78.05;95226.44;5074254;28;20510;-59
2023/09/04 10:32:17;;;;;;;0.60;0.40;;;;;;;21.90;83.30;95252.72;5073937;28;20437;-59
2023/09/04 10:34:46;;;;;;;1.70;0.43;;;;;;;22.03;86.05;95249.66;5073506;28;20807;-58
2023/09/04 10:37:15;;;;;;;0.70;0.50;;;;;;;21.96;90.24;95248.69;5073474;28;20499;-58
2023/09/04 10:39:45;;;;;;;0.60;0.60;;;;;;;21.83;93.67;95250.56;5073913;28;20472;-59
2023/09/04 10:42:19;;;;;;;2.40;0.40;;;;;;;21.69;100.00;95254.78;5073570;28;21015;-58
2023/09/04 10:44:49;;;;;;;0.50;0.40;;;;;;;21.37;100.00;95254.63;5073809;28;20449;-58
2023/09/04 10:47:19;;;;;;;0.60;0.40;;;;;;;21.28;100.00;95258.53;5048284;28;20441;-59
2023/09/04 10:49:49;;;;;;;0.40;0.20;;;;;;;21.18;100.00;95248.19;5073600;28;20477;-59
2023/09/04 10:52:19;;;;;;;0.40;0.30;;;;;;;21.63;91.61;95259.59;5073756;28;20484;-58
2023/09/04 10:54:47;;;;;;;0.40;0.20;;;;;;;21.77;89.59;95246.56;5073269;28;20969;-59
2023/09/04 10:57:16;;;;;;;0.40;0.30;;;;;;;21.90;91.81;95253.53;5073968;28;20449;-59
2023/09/04 11:00:01;;;;;;;0.47;0.30;;;;;;;21.68;91.96;95216.22;5073497;28;20498;-59
2023/09/04 11:02:31;;;;;;;0.40;0.20;;;;;;;21.89;98.91;95251.94;5074001;28;20437;-59
2023/09/04 11:05:01;;;;;;;0.60;0.40;;;;;;;22.00;100.00;95260.34;5072998;28;20471;-59
2023/09/04 11:07:32;;;;;;;0.50;0.40;;;;;;;21.46;100.00;95260.66;5074236;28;20524;-59
2023/09/04 11:10:05;;;;;;;0.40;0.20;;;;;;;21.59;100.00;95244.44;5048455;28;20990;-59
2023/09/04 11:12:35;;;;;;;0.50;0.30;;;;;;;21.42;100.00;95216.63;5073602;28;20933;-60
2023/09/04 11:15:12;;;;;;;0.50;0.30;;;;;;;21.28;100.00;95215.41;5073734;28;20452;-59
2023/09/04 11:17:47;;;;;;;0.70;0.70;;;;;;;21.34;100.00;95266.06;5073752;28;20441;-59
2023/09/04 11:20:17;;;;;;;0.40;0.30;;;;;;;21.35;100.00;95242.59;5073895;28;20443;-59
2023/09/04 11:22:48;;;;;;;0.40;0.20;;;;;;;21.67;100.00;95268.59;5073150;28;20429;-60
2023/09/04 11:25:17;;;;;;;0.40;0.30;;;;;;;21.51;100.00;95257.72;5073652;28;20444;-59
2023/09/04 11:27:47;;;;;;;0.40;0.27;;;;;;;21.36;100.00;95244.94;5046885;28;20433;-58
2023/09/04 11:30:16;;;;;;;0.50;0.37;;;;;;;21.38;100.00;95258.88;5072589;28;20454;-59
2023/09/04 11:32:45;;;;;;;0.80;0.60;;;;;;;21.32;100.00;95264.84;5073505;28;20899;-59
2023/09/04 11:35:14;;;;;;;0.50;0.40;;;;;;;21.00;100.00;95211.81;5072924;28;20495;-59
2023/09/04 11:37:44;;;;;;;0.60;0.30;;;;;;;21.05;100.00;95260.84;5073099;28;20442;-58
2023/09/04 11:40:13;;;;;;;0.50;0.30;;;;;;;21.06;100.00;95249.00;5072696;28;20441;-58